sensor_id;sensor_type;location;lat;lon;timestamp;P1;durP1;ratioP1;P2;durP2;ratioP2
61252;SDS011;47127;47.516;8.596;2023-12-20T00:00:34;10.23;;;5.13;;
61252;SDS011;47127;47.516;8.596;2023-12-20T00:03:01;10.27;;;4.57;;
61252;SDS011;47127;47.516;8.596;2023-12-20T00:05:26;11.30;;;5.25;;
61252;SDS011;47127;47.516;8.596;2023-12-20T00:07:52;9.93;;;4.82;;
61252;SDS011;47127;47.516;8.596;2023-12-20T00:10:19;9.93;;;4.85;;
61252;SDS011;47127;47.516;8.596;2023-12-20T00:12:45;11.63;;;5.25;;
61252;SDS011;47127;47.516;8.596;2023-12-20T00:15:10;10.38;;;4.70;;
61252;SDS011;47127;47.516;8.596;2023-12-20T00:17:36;11.60;;;4.55;;
61252;SDS011;47127;47.516;8.596;2023-12-20T00:20:02;9.20;;;4.53;;
61252;SDS011;47127;47.516;8.596;2023-12-20T00:22:27;9.70;;;4.13;;
61252;SDS011;47127;47.516;8.596;2023-12-20T00:24:53;9.02;;;4.45;;
61252;SDS011;47127;47.516;8.596;2023-12-20T00:27:18;10.85;;;4.70;;
61252;SDS011;47127;47.516;8.596;2023-12-20T00:29:44;10.85;;;4.90;;
61252;SDS011;47127;47.516;8.596;2023-12-20T00:32:12;11.15;;;5.13;;
61252;SDS011;47127;47.516;8.596;2023-12-20T00:34:38;10.57;;;4.63;;
61252;SDS011;47127;47.516;8.596;2023-12-20T00:37:05;8.82;;;4.28;;
61252;SDS011;47127;47.516;8.596;2023-12-20T00:39:30;10.82;;;4.63;;
61252;SDS011;47127;47.516;8.596;2023-12-20T00:41:58;11.18;;;5.07;;
61252;SDS011;47127;47.516;8.596;2023-12-20T00:44:23;10.05;;;4.63;;
61252;SDS011;47127;47.516;8.596;2023-12-20T00:46:49;9.93;;;4.68;;
61252;SDS011;47127;47.516;8.596;2023-12-20T00:49:16;10.15;;;5.47;;
61252;SDS011;47127;47.516;8.596;2023-12-20T00:51:41;11.55;;;5.45;;
61252;SDS011;47127;47.516;8.596;2023-12-20T00:54:07;11.88;;;5.50;;
61252;SDS011;47127;47.516;8.596;2023-12-20T00:56:32;11.93;;;5.40;;
61252;SDS011;47127;47.516;8.596;2023-12-20T00:58:58;11.88;;;5.07;;
61252;SDS011;47127;47.516;8.596;2023-12-20T01:01:24;10.00;;;4.68;;
61252;SDS011;47127;47.516;8.596;2023-12-20T01:03:49;12.00;;;5.43;;
61252;SDS011;47127;47.516;8.596;2023-12-20T01:06:16;9.95;;;5.13;;
61252;SDS011;47127;47.516;8.596;2023-12-20T01:08:43;12.70;;;5.10;;
61252;SDS011;47127;47.516;8.596;2023-12-20T01:11:09;9.18;;;4.57;;
61252;SDS011;47127;47.516;8.596;2023-12-20T01:13:34;12.00;;;5.28;;
61252;SDS011;47127;47.516;8.596;2023-12-20T01:16:00;11.63;;;5.45;;
61252;SDS011;47127;47.516;8.596;2023-12-20T01:18:26;10.50;;;4.97;;
61252;SDS011;47127;47.516;8.596;2023-12-20T01:20:51;12.13;;;5.72;;
61252;SDS011;47127;47.516;8.596;2023-12-20T01:23:17;10.00;;;4.88;;
61252;SDS011;47127;47.516;8.596;2023-12-20T01:25:43;13.23;;;5.88;;
61252;SDS011;47127;47.516;8.596;2023-12-20T01:28:08;14.50;;;5.85;;
61252;SDS011;47127;47.516;8.596;2023-12-20T01:30:34;11.15;;;5.18;;
61252;SDS011;47127;47.516;8.596;2023-12-20T01:33:00;12.52;;;5.47;;
61252;SDS011;47127;47.516;8.596;2023-12-20T01:35:26;13.55;;;6.57;;
61252;SDS011;47127;47.516;8.596;2023-12-20T01:37:51;10.93;;;5.85;;
61252;SDS011;47127;47.516;8.596;2023-12-20T01:40:21;11.95;;;5.80;;
61252;SDS011;47127;47.516;8.596;2023-12-20T01:42:47;10.10;;;5.32;;
61252;SDS011;47127;47.516;8.596;2023-12-20T01:45:13;12.60;;;5.68;;
61252;SDS011;47127;47.516;8.596;2023-12-20T01:47:38;14.18;;;6.65;;
61252;SDS011;47127;47.516;8.596;2023-12-20T01:50:04;12.40;;;5.90;;
61252;SDS011;47127;47.516;8.596;2023-12-20T01:52:32;14.05;;;5.65;;
61252;SDS011;47127;47.516;8.596;2023-12-20T01:54:58;11.55;;;5.50;;
61252;SDS011;47127;47.516;8.596;2023-12-20T01:57:27;12.10;;;5.82;;
61252;SDS011;47127;47.516;8.596;2023-12-20T01:59:53;12.18;;;6.03;;
61252;SDS011;47127;47.516;8.596;2023-12-20T02:02:19;12.15;;;5.75;;
61252;SDS011;47127;47.516;8.596;2023-12-20T02:04:45;12.38;;;5.95;;
61252;SDS011;47127;47.516;8.596;2023-12-20T02:07:11;11.02;;;5.60;;
61252;SDS011;47127;47.516;8.596;2023-12-20T02:09:36;13.20;;;6.57;;
61252;SDS011;47127;47.516;8.596;2023-12-20T02:12:04;12.90;;;5.63;;
61252;SDS011;47127;47.516;8.596;2023-12-20T02:14:30;14.88;;;6.03;;
61252;SDS011;47127;47.516;8.596;2023-12-20T02:16:56;13.55;;;6.18;;
61252;SDS011;47127;47.516;8.596;2023-12-20T02:19:21;14.13;;;6.20;;
61252;SDS011;47127;47.516;8.596;2023-12-20T02:21:48;13.98;;;6.07;;
61252;SDS011;47127;47.516;8.596;2023-12-20T02:24:13;11.55;;;5.72;;
61252;SDS011;47127;47.516;8.596;2023-12-20T02:26:39;12.88;;;5.88;;
61252;SDS011;47127;47.516;8.596;2023-12-20T02:29:05;12.45;;;6.00;;
61252;SDS011;47127;47.516;8.596;2023-12-20T02:31:31;12.50;;;6.20;;
61252;SDS011;47127;47.516;8.596;2023-12-20T02:33:57;11.80;;;5.95;;
61252;SDS011;47127;47.516;8.596;2023-12-20T02:36:23;11.13;;;5.57;;
61252;SDS011;47127;47.516;8.596;2023-12-20T02:38:48;13.07;;;6.47;;
61252;SDS011;47127;47.516;8.596;2023-12-20T02:41:15;13.60;;;6.72;;
61252;SDS011;47127;47.516;8.596;2023-12-20T02:43:42;12.93;;;6.18;;
61252;SDS011;47127;47.516;8.596;2023-12-20T02:46:09;12.23;;;5.82;;
61252;SDS011;47127;47.516;8.596;2023-12-20T02:48:34;10.60;;;5.03;;
61252;SDS011;47127;47.516;8.596;2023-12-20T02:51:01;13.23;;;6.25;;
61252;SDS011;47127;47.516;8.596;2023-12-20T02:53:27;11.20;;;5.60;;
61252;SDS011;47127;47.516;8.596;2023-12-20T02:55:52;12.45;;;6.40;;
61252;SDS011;47127;47.516;8.596;2023-12-20T02:58:18;11.88;;;6.15;;
61252;SDS011;47127;47.516;8.596;2023-12-20T03:00:43;12.00;;;5.78;;
61252;SDS011;47127;47.516;8.596;2023-12-20T03:03:09;12.18;;;6.20;;
61252;SDS011;47127;47.516;8.596;2023-12-20T03:05:34;11.23;;;6.30;;
61252;SDS011;47127;47.516;8.596;2023-12-20T03:08:00;12.57;;;6.38;;
61252;SDS011;47127;47.516;8.596;2023-12-20T03:10:25;11.70;;;6.07;;
61252;SDS011;47127;47.516;8.596;2023-12-20T03:12:51;11.77;;;6.03;;
61252;SDS011;47127;47.516;8.596;2023-12-20T03:15:16;15.30;;;6.80;;
61252;SDS011;47127;47.516;8.596;2023-12-20T03:17:42;13.98;;;6.82;;
61252;SDS011;47127;47.516;8.596;2023-12-20T03:20:08;13.27;;;6.88;;
61252;SDS011;47127;47.516;8.596;2023-12-20T03:22:33;14.30;;;6.40;;
61252;SDS011;47127;47.516;8.596;2023-12-20T03:25:00;12.30;;;6.60;;
61252;SDS011;47127;47.516;8.596;2023-12-20T03:27:25;13.85;;;7.10;;
61252;SDS011;47127;47.516;8.596;2023-12-20T03:29:51;12.35;;;6.75;;
61252;SDS011;47127;47.516;8.596;2023-12-20T03:32:16;15.00;;;7.38;;
61252;SDS011;47127;47.516;8.596;2023-12-20T03:34:42;12.93;;;6.57;;
61252;SDS011;47127;47.516;8.596;2023-12-20T03:37:07;13.43;;;6.55;;
61252;SDS011;47127;47.516;8.596;2023-12-20T03:39:33;13.10;;;6.85;;
61252;SDS011;47127;47.516;8.596;2023-12-20T03:41:58;14.15;;;7.13;;
61252;SDS011;47127;47.516;8.596;2023-12-20T03:44:24;14.88;;;7.35;;
61252;SDS011;47127;47.516;8.596;2023-12-20T03:46:49;14.10;;;7.15;;
61252;SDS011;47127;47.516;8.596;2023-12-20T03:49:15;14.15;;;6.88;;
61252;SDS011;47127;47.516;8.596;2023-12-20T03:51:41;13.43;;;6.95;;
61252;SDS011;47127;47.516;8.596;2023-12-20T03:54:07;14.27;;;7.88;;
61252;SDS011;47127;47.516;8.596;2023-12-20T03:56:33;15.65;;;6.95;;
61252;SDS011;47127;47.516;8.596;2023-12-20T03:58:58;13.43;;;6.63;;
61252;SDS011;47127;47.516;8.596;2023-12-20T04:01:24;13.60;;;6.85;;
61252;SDS011;47127;47.516;8.596;2023-12-20T04:03:49;15.52;;;7.00;;
61252;SDS011;47127;47.516;8.596;2023-12-20T04:06:18;14.77;;;6.88;;
61252;SDS011;47127;47.516;8.596;2023-12-20T04:08:44;13.00;;;6.65;;
61252;SDS011;47127;47.516;8.596;2023-12-20T04:11:09;13.18;;;6.43;;
61252;SDS011;47127;47.516;8.596;2023-12-20T04:13:35;12.13;;;6.30;;
61252;SDS011;47127;47.516;8.596;2023-12-20T04:16:00;11.77;;;6.05;;
61252;SDS011;47127;47.516;8.596;2023-12-20T04:18:26;13.60;;;6.57;;
61252;SDS011;47127;47.516;8.596;2023-12-20T04:20:53;13.25;;;6.10;;
61252;SDS011;47127;47.516;8.596;2023-12-20T04:23:18;15.65;;;7.10;;
61252;SDS011;47127;47.516;8.596;2023-12-20T04:25:44;14.93;;;6.65;;
61252;SDS011;47127;47.516;8.596;2023-12-20T04:28:10;11.90;;;5.70;;
61252;SDS011;47127;47.516;8.596;2023-12-20T04:30:35;13.18;;;6.70;;
61252;SDS011;47127;47.516;8.596;2023-12-20T04:33:01;12.38;;;6.45;;
61252;SDS011;47127;47.516;8.596;2023-12-20T04:35:27;15.32;;;7.00;;
61252;SDS011;47127;47.516;8.596;2023-12-20T04:37:53;11.75;;;6.38;;
61252;SDS011;47127;47.516;8.596;2023-12-20T04:40:18;13.57;;;7.25;;
61252;SDS011;47127;47.516;8.596;2023-12-20T04:42:44;16.27;;;7.68;;
61252;SDS011;47127;47.516;8.596;2023-12-20T04:45:09;12.82;;;7.07;;
61252;SDS011;47127;47.516;8.596;2023-12-20T04:47:38;13.63;;;7.03;;
61252;SDS011;47127;47.516;8.596;2023-12-20T04:50:03;13.85;;;7.53;;
61252;SDS011;47127;47.516;8.596;2023-12-20T04:52:29;14.85;;;7.35;;
61252;SDS011;47127;47.516;8.596;2023-12-20T04:54:55;14.18;;;7.50;;
61252;SDS011;47127;47.516;8.596;2023-12-20T04:57:21;13.77;;;7.15;;
61252;SDS011;47127;47.516;8.596;2023-12-20T04:59:46;13.00;;;7.35;;
61252;SDS011;47127;47.516;8.596;2023-12-20T05:02:12;15.00;;;7.22;;
61252;SDS011;47127;47.516;8.596;2023-12-20T05:04:37;16.27;;;8.25;;
61252;SDS011;47127;47.516;8.596;2023-12-20T05:07:03;15.85;;;8.15;;
61252;SDS011;47127;47.516;8.596;2023-12-20T05:09:30;14.73;;;8.00;;
61252;SDS011;47127;47.516;8.596;2023-12-20T05:11:55;14.90;;;7.40;;
61252;SDS011;47127;47.516;8.596;2023-12-20T05:14:21;15.13;;;8.05;;
61252;SDS011;47127;47.516;8.596;2023-12-20T05:16:46;14.40;;;7.40;;
61252;SDS011;47127;47.516;8.596;2023-12-20T05:19:12;15.00;;;8.05;;
61252;SDS011;47127;47.516;8.596;2023-12-20T05:21:37;14.88;;;8.32;;
61252;SDS011;47127;47.516;8.596;2023-12-20T05:24:03;15.52;;;8.65;;
61252;SDS011;47127;47.516;8.596;2023-12-20T05:26:29;18.05;;;8.75;;
61252;SDS011;47127;47.516;8.596;2023-12-20T05:28:55;17.67;;;8.80;;
61252;SDS011;47127;47.516;8.596;2023-12-20T05:31:21;15.63;;;9.02;;
61252;SDS011;47127;47.516;8.596;2023-12-20T05:33:48;15.70;;;8.43;;
61252;SDS011;47127;47.516;8.596;2023-12-20T05:36:13;15.48;;;8.27;;
61252;SDS011;47127;47.516;8.596;2023-12-20T05:38:40;15.15;;;8.52;;
61252;SDS011;47127;47.516;8.596;2023-12-20T05:41:05;15.50;;;8.50;;
61252;SDS011;47127;47.516;8.596;2023-12-20T05:43:32;15.15;;;7.93;;
61252;SDS011;47127;47.516;8.596;2023-12-20T05:45:58;14.25;;;8.48;;
61252;SDS011;47127;47.516;8.596;2023-12-20T05:48:23;15.93;;;7.60;;
61252;SDS011;47127;47.516;8.596;2023-12-20T05:50:49;16.73;;;8.35;;
61252;SDS011;47127;47.516;8.596;2023-12-20T05:53:14;15.02;;;8.20;;
61252;SDS011;47127;47.516;8.596;2023-12-20T05:55:40;15.68;;;9.07;;
61252;SDS011;47127;47.516;8.596;2023-12-20T05:58:05;15.63;;;8.68;;
61252;SDS011;47127;47.516;8.596;2023-12-20T06:00:31;15.80;;;9.43;;
61252;SDS011;47127;47.516;8.596;2023-12-20T06:02:57;17.27;;;9.18;;
61252;SDS011;47127;47.516;8.596;2023-12-20T06:05:22;16.13;;;7.88;;
61252;SDS011;47127;47.516;8.596;2023-12-20T06:07:48;17.30;;;8.45;;
61252;SDS011;47127;47.516;8.596;2023-12-20T06:10:15;14.02;;;8.23;;
61252;SDS011;47127;47.516;8.596;2023-12-20T06:12:41;14.18;;;7.63;;
61252;SDS011;47127;47.516;8.596;2023-12-20T06:15:07;14.88;;;7.60;;
61252;SDS011;47127;47.516;8.596;2023-12-20T06:17:33;14.32;;;6.90;;
61252;SDS011;47127;47.516;8.596;2023-12-20T06:20:00;14.35;;;8.18;;
61252;SDS011;47127;47.516;8.596;2023-12-20T06:22:26;12.40;;;6.82;;
61252;SDS011;47127;47.516;8.596;2023-12-20T06:24:51;13.77;;;8.10;;
61252;SDS011;47127;47.516;8.596;2023-12-20T06:27:17;14.77;;;7.68;;
61252;SDS011;47127;47.516;8.596;2023-12-20T06:29:42;18.27;;;8.40;;
61252;SDS011;47127;47.516;8.596;2023-12-20T06:32:09;16.55;;;8.57;;
61252;SDS011;47127;47.516;8.596;2023-12-20T06:34:35;14.40;;;8.18;;
61252;SDS011;47127;47.516;8.596;2023-12-20T06:37:01;13.68;;;7.30;;
61252;SDS011;47127;47.516;8.596;2023-12-20T06:39:26;16.23;;;7.93;;
61252;SDS011;47127;47.516;8.596;2023-12-20T06:41:53;16.35;;;8.40;;
61252;SDS011;47127;47.516;8.596;2023-12-20T06:44:18;15.30;;;8.07;;
61252;SDS011;47127;47.516;8.596;2023-12-20T06:46:44;13.65;;;7.68;;
61252;SDS011;47127;47.516;8.596;2023-12-20T06:49:09;13.90;;;7.85;;
61252;SDS011;47127;47.516;8.596;2023-12-20T06:51:35;13.98;;;8.10;;
61252;SDS011;47127;47.516;8.596;2023-12-20T06:54:01;13.45;;;7.50;;
61252;SDS011;47127;47.516;8.596;2023-12-20T06:56:27;17.63;;;8.85;;
61252;SDS011;47127;47.516;8.596;2023-12-20T06:58:53;15.45;;;8.63;;
61252;SDS011;47127;47.516;8.596;2023-12-20T07:01:18;20.42;;;10.40;;
61252;SDS011;47127;47.516;8.596;2023-12-20T07:03:44;21.17;;;10.75;;
61252;SDS011;47127;47.516;8.596;2023-12-20T07:06:09;15.18;;;8.00;;
61252;SDS011;47127;47.516;8.596;2023-12-20T07:08:35;15.38;;;8.38;;
61252;SDS011;47127;47.516;8.596;2023-12-20T07:11:00;13.70;;;7.65;;
61252;SDS011;47127;47.516;8.596;2023-12-20T07:13:26;16.15;;;8.27;;
61252;SDS011;47127;47.516;8.596;2023-12-20T07:15:51;15.65;;;8.52;;
61252;SDS011;47127;47.516;8.596;2023-12-20T07:18:17;13.57;;;7.50;;
61252;SDS011;47127;47.516;8.596;2023-12-20T07:20:43;15.85;;;7.43;;
61252;SDS011;47127;47.516;8.596;2023-12-20T07:23:08;15.18;;;8.32;;
61252;SDS011;47127;47.516;8.596;2023-12-20T07:25:34;13.23;;;7.20;;
61252;SDS011;47127;47.516;8.596;2023-12-20T07:28:00;75.80;;;47.78;;
61252;SDS011;47127;47.516;8.596;2023-12-20T07:30:25;33.50;;;21.40;;
61252;SDS011;47127;47.516;8.596;2023-12-20T07:32:51;24.77;;;10.27;;
61252;SDS011;47127;47.516;8.596;2023-12-20T07:35:18;16.80;;;6.72;;
61252;SDS011;47127;47.516;8.596;2023-12-20T07:37:44;22.10;;;8.32;;
61252;SDS011;47127;47.516;8.596;2023-12-20T07:40:11;15.88;;;7.15;;
61252;SDS011;47127;47.516;8.596;2023-12-20T07:42:38;12.15;;;6.15;;
61252;SDS011;47127;47.516;8.596;2023-12-20T07:45:03;11.63;;;5.93;;
61252;SDS011;47127;47.516;8.596;2023-12-20T07:47:29;11.57;;;5.70;;
61252;SDS011;47127;47.516;8.596;2023-12-20T07:49:55;12.93;;;6.75;;
61252;SDS011;47127;47.516;8.596;2023-12-20T07:52:21;11.45;;;6.65;;
61252;SDS011;47127;47.516;8.596;2023-12-20T07:54:49;11.43;;;6.40;;
61252;SDS011;47127;47.516;8.596;2023-12-20T07:57:16;11.00;;;5.95;;
61252;SDS011;47127;47.516;8.596;2023-12-20T07:59:42;12.30;;;6.18;;
61252;SDS011;47127;47.516;8.596;2023-12-20T08:02:09;10.25;;;5.50;;
61252;SDS011;47127;47.516;8.596;2023-12-20T08:04:34;11.07;;;6.22;;
61252;SDS011;47127;47.516;8.596;2023-12-20T08:07:00;13.02;;;5.57;;
61252;SDS011;47127;47.516;8.596;2023-12-20T08:09:26;11.73;;;5.90;;
61252;SDS011;47127;47.516;8.596;2023-12-20T08:11:51;11.18;;;5.78;;
61252;SDS011;47127;47.516;8.596;2023-12-20T08:14:18;11.07;;;5.75;;
61252;SDS011;47127;47.516;8.596;2023-12-20T08:16:44;9.40;;;4.97;;
61252;SDS011;47127;47.516;8.596;2023-12-20T08:19:12;11.65;;;5.60;;
61252;SDS011;47127;47.516;8.596;2023-12-20T08:21:40;9.82;;;5.15;;
61252;SDS011;47127;47.516;8.596;2023-12-20T08:24:05;11.50;;;4.93;;
61252;SDS011;47127;47.516;8.596;2023-12-20T08:26:32;13.35;;;6.75;;
61252;SDS011;47127;47.516;8.596;2023-12-20T08:28:58;12.00;;;5.93;;
61252;SDS011;47127;47.516;8.596;2023-12-20T08:31:25;13.63;;;6.40;;
61252;SDS011;47127;47.516;8.596;2023-12-20T08:33:51;12.52;;;6.07;;
61252;SDS011;47127;47.516;8.596;2023-12-20T08:36:18;10.90;;;6.22;;
61252;SDS011;47127;47.516;8.596;2023-12-20T08:38:46;14.90;;;8.25;;
61252;SDS011;47127;47.516;8.596;2023-12-20T08:41:12;12.77;;;7.38;;
61252;SDS011;47127;47.516;8.596;2023-12-20T08:43:38;11.52;;;6.32;;
61252;SDS011;47127;47.516;8.596;2023-12-20T08:46:07;12.40;;;7.07;;
61252;SDS011;47127;47.516;8.596;2023-12-20T08:48:34;12.75;;;6.75;;
61252;SDS011;47127;47.516;8.596;2023-12-20T08:51:00;13.85;;;6.97;;
61252;SDS011;47127;47.516;8.596;2023-12-20T08:53:26;13.55;;;7.00;;
61252;SDS011;47127;47.516;8.596;2023-12-20T08:55:55;12.50;;;7.13;;
61252;SDS011;47127;47.516;8.596;2023-12-20T08:58:21;11.77;;;6.75;;
61252;SDS011;47127;47.516;8.596;2023-12-20T09:00:46;13.30;;;7.15;;
61252;SDS011;47127;47.516;8.596;2023-12-20T09:03:12;13.45;;;7.10;;
61252;SDS011;47127;47.516;8.596;2023-12-20T09:05:37;12.93;;;7.43;;
61252;SDS011;47127;47.516;8.596;2023-12-20T09:08:03;15.18;;;7.80;;
61252;SDS011;47127;47.516;8.596;2023-12-20T09:10:31;13.65;;;7.80;;
61252;SDS011;47127;47.516;8.596;2023-12-20T09:12:57;12.60;;;8.32;;
61252;SDS011;47127;47.516;8.596;2023-12-20T09:15:23;13.45;;;7.50;;
61252;SDS011;47127;47.516;8.596;2023-12-20T09:17:51;14.48;;;8.00;;
61252;SDS011;47127;47.516;8.596;2023-12-20T09:20:17;13.23;;;7.22;;
61252;SDS011;47127;47.516;8.596;2023-12-20T09:22:43;14.20;;;7.53;;
61252;SDS011;47127;47.516;8.596;2023-12-20T09:25:12;14.52;;;8.35;;
61252;SDS011;47127;47.516;8.596;2023-12-20T09:27:40;15.02;;;7.60;;
61252;SDS011;47127;47.516;8.596;2023-12-20T09:30:07;15.27;;;7.85;;
61252;SDS011;47127;47.516;8.596;2023-12-20T09:32:49;13.07;;;7.85;;
61252;SDS011;47127;47.516;8.596;2023-12-20T09:35:14;14.57;;;7.60;;
61252;SDS011;47127;47.516;8.596;2023-12-20T09:37:43;12.35;;;6.25;;
61252;SDS011;47127;47.516;8.596;2023-12-20T09:40:10;12.30;;;7.00;;
61252;SDS011;47127;47.516;8.596;2023-12-20T09:42:57;16.05;;;7.57;;
61252;SDS011;47127;47.516;8.596;2023-12-20T09:45:24;13.52;;;7.38;;
61252;SDS011;47127;47.516;8.596;2023-12-20T09:47:50;12.65;;;6.28;;
61252;SDS011;47127;47.516;8.596;2023-12-20T09:50:18;10.25;;;5.93;;
61252;SDS011;47127;47.516;8.596;2023-12-20T09:52:45;11.52;;;6.63;;
61252;SDS011;47127;47.516;8.596;2023-12-20T09:55:15;13.20;;;5.80;;
61252;SDS011;47127;47.516;8.596;2023-12-20T09:57:48;11.00;;;5.57;;
61252;SDS011;47127;47.516;8.596;2023-12-20T10:00:14;10.07;;;5.75;;
61252;SDS011;47127;47.516;8.596;2023-12-20T10:05:36;12.73;;;6.95;;
61252;SDS011;47127;47.516;8.596;2023-12-20T10:08:01;10.25;;;5.97;;
61252;SDS011;47127;47.516;8.596;2023-12-20T10:10:28;10.70;;;5.50;;
61252;SDS011;47127;47.516;8.596;2023-12-20T10:13:04;11.95;;;6.00;;
61252;SDS011;47127;47.516;8.596;2023-12-20T10:15:34;13.00;;;6.03;;
61252;SDS011;47127;47.516;8.596;2023-12-20T10:18:00;10.60;;;5.97;;
61252;SDS011;47127;47.516;8.596;2023-12-20T10:20:27;13.13;;;6.28;;
61252;SDS011;47127;47.516;8.596;2023-12-20T10:22:58;14.20;;;6.20;;
61252;SDS011;47127;47.516;8.596;2023-12-20T10:25:25;11.93;;;5.78;;
61252;SDS011;47127;47.516;8.596;2023-12-20T10:28:08;12.13;;;5.82;;
61252;SDS011;47127;47.516;8.596;2023-12-20T10:30:42;16.90;;;9.73;;
61252;SDS011;47127;47.516;8.596;2023-12-20T10:33:08;8.88;;;5.45;;
61252;SDS011;47127;47.516;8.596;2023-12-20T10:35:38;10.50;;;5.75;;
61252;SDS011;47127;47.516;8.596;2023-12-20T10:38:04;8.18;;;4.70;;
61252;SDS011;47127;47.516;8.596;2023-12-20T10:40:34;9.27;;;5.40;;
61252;SDS011;47127;47.516;8.596;2023-12-20T10:43:01;7.03;;;3.83;;
61252;SDS011;47127;47.516;8.596;2023-12-20T10:45:29;8.18;;;4.57;;
61252;SDS011;47127;47.516;8.596;2023-12-20T10:47:54;6.20;;;3.65;;
61252;SDS011;47127;47.516;8.596;2023-12-20T10:50:21;8.38;;;4.07;;
61252;SDS011;47127;47.516;8.596;2023-12-20T10:52:49;13.15;;;6.93;;
61252;SDS011;47127;47.516;8.596;2023-12-20T10:55:20;12.68;;;6.18;;
61252;SDS011;47127;47.516;8.596;2023-12-20T10:57:49;8.52;;;3.83;;
61252;SDS011;47127;47.516;8.596;2023-12-20T11:00:17;11.43;;;5.70;;
61252;SDS011;47127;47.516;8.596;2023-12-20T11:02:44;8.15;;;3.60;;
61252;SDS011;47127;47.516;8.596;2023-12-20T11:05:31;11.27;;;3.40;;
61252;SDS011;47127;47.516;8.596;2023-12-20T11:10:38;11.75;;;6.32;;
61252;SDS011;47127;47.516;8.596;2023-12-20T11:13:39;5.20;;;2.50;;
61252;SDS011;47127;47.516;8.596;2023-12-20T11:16:13;3.40;;;1.90;;
61252;SDS011;47127;47.516;8.596;2023-12-20T11:18:38;3.80;;;1.95;;
61252;SDS011;47127;47.516;8.596;2023-12-20T11:21:06;3.42;;;1.60;;
61252;SDS011;47127;47.516;8.596;2023-12-20T11:23:32;3.80;;;2.03;;
61252;SDS011;47127;47.516;8.596;2023-12-20T11:26:02;5.43;;;2.95;;
61252;SDS011;47127;47.516;8.596;2023-12-20T11:28:30;4.35;;;1.98;;
61252;SDS011;47127;47.516;8.596;2023-12-20T11:31:00;4.00;;;1.95;;
61252;SDS011;47127;47.516;8.596;2023-12-20T11:33:29;4.85;;;2.00;;
61252;SDS011;47127;47.516;8.596;2023-12-20T11:36:12;5.82;;;2.72;;
61252;SDS011;47127;47.516;8.596;2023-12-20T11:38:49;3.38;;;1.40;;
61252;SDS011;47127;47.516;8.596;2023-12-20T11:41:22;2.25;;;1.20;;
61252;SDS011;47127;47.516;8.596;2023-12-20T11:43:53;6.22;;;1.50;;
61252;SDS011;47127;47.516;8.596;2023-12-20T11:46:20;5.38;;;2.00;;
61252;SDS011;47127;47.516;8.596;2023-12-20T11:48:49;2.00;;;1.15;;
61252;SDS011;47127;47.516;8.596;2023-12-20T11:51:16;5.63;;;1.10;;
61252;SDS011;47127;47.516;8.596;2023-12-20T11:53:42;2.08;;;1.05;;
61252;SDS011;47127;47.516;8.596;2023-12-20T11:56:08;3.22;;;1.27;;
61252;SDS011;47127;47.516;8.596;2023-12-20T11:58:34;4.28;;;1.98;;
61252;SDS011;47127;47.516;8.596;2023-12-20T12:01:01;1.50;;;0.80;;
61252;SDS011;47127;47.516;8.596;2023-12-20T12:03:32;2.22;;;0.80;;
61252;SDS011;47127;47.516;8.596;2023-12-20T12:06:03;1.73;;;0.85;;
61252;SDS011;47127;47.516;8.596;2023-12-20T12:08:30;2.97;;;1.40;;
61252;SDS011;47127;47.516;8.596;2023-12-20T12:10:55;1.45;;;0.60;;
61252;SDS011;47127;47.516;8.596;2023-12-20T12:13:21;2.47;;;1.20;;
61252;SDS011;47127;47.516;8.596;2023-12-20T12:15:47;1.77;;;0.68;;
61252;SDS011;47127;47.516;8.596;2023-12-20T12:18:15;3.92;;;1.20;;
61252;SDS011;47127;47.516;8.596;2023-12-20T12:20:41;0.68;;;0.45;;
61252;SDS011;47127;47.516;8.596;2023-12-20T12:23:07;3.63;;;1.00;;
61252;SDS011;47127;47.516;8.596;2023-12-20T12:25:35;4.18;;;1.38;;
61252;SDS011;47127;47.516;8.596;2023-12-20T12:28:01;5.20;;;1.42;;
61252;SDS011;47127;47.516;8.596;2023-12-20T12:30:27;1.25;;;0.80;;
61252;SDS011;47127;47.516;8.596;2023-12-20T12:32:53;2.85;;;1.10;;
61252;SDS011;47127;47.516;8.596;2023-12-20T12:35:20;2.63;;;1.10;;
61252;SDS011;47127;47.516;8.596;2023-12-20T12:37:48;2.13;;;0.70;;
61252;SDS011;47127;47.516;8.596;2023-12-20T12:40:15;4.10;;;0.80;;
61252;SDS011;47127;47.516;8.596;2023-12-20T12:42:43;3.03;;;1.15;;
61252;SDS011;47127;47.516;8.596;2023-12-20T12:45:10;5.35;;;1.20;;
61252;SDS011;47127;47.516;8.596;2023-12-20T12:47:39;8.95;;;3.47;;
61252;SDS011;47127;47.516;8.596;2023-12-20T12:50:05;1.30;;;0.45;;
61252;SDS011;47127;47.516;8.596;2023-12-20T12:52:31;2.40;;;0.98;;
61252;SDS011;47127;47.516;8.596;2023-12-20T12:54:57;3.78;;;0.88;;
61252;SDS011;47127;47.516;8.596;2023-12-20T12:57:23;5.28;;;2.00;;
61252;SDS011;47127;47.516;8.596;2023-12-20T12:59:50;10.13;;;1.73;;
61252;SDS011;47127;47.516;8.596;2023-12-20T13:02:16;9.52;;;3.08;;
61252;SDS011;47127;47.516;8.596;2023-12-20T13:04:42;2.25;;;0.85;;
61252;SDS011;47127;47.516;8.596;2023-12-20T13:07:09;10.25;;;2.65;;
61252;SDS011;47127;47.516;8.596;2023-12-20T13:09:38;2.35;;;1.20;;
61252;SDS011;47127;47.516;8.596;2023-12-20T13:12:09;3.30;;;1.08;;
61252;SDS011;47127;47.516;8.596;2023-12-20T13:14:38;3.35;;;0.98;;
61252;SDS011;47127;47.516;8.596;2023-12-20T13:17:04;1.70;;;0.77;;
61252;SDS011;47127;47.516;8.596;2023-12-20T13:19:30;1.63;;;0.70;;
61252;SDS011;47127;47.516;8.596;2023-12-20T13:21:56;2.42;;;0.93;;
61252;SDS011;47127;47.516;8.596;2023-12-20T13:24:23;3.75;;;1.13;;
61252;SDS011;47127;47.516;8.596;2023-12-20T13:26:49;3.65;;;1.20;;
61252;SDS011;47127;47.516;8.596;2023-12-20T13:29:14;2.88;;;1.30;;
61252;SDS011;47127;47.516;8.596;2023-12-20T13:31:41;1.38;;;0.80;;
61252;SDS011;47127;47.516;8.596;2023-12-20T13:34:08;2.60;;;1.20;;
61252;SDS011;47127;47.516;8.596;2023-12-20T13:36:34;2.92;;;1.25;;
61252;SDS011;47127;47.516;8.596;2023-12-20T13:39:01;1.88;;;0.90;;
61252;SDS011;47127;47.516;8.596;2023-12-20T13:41:30;3.17;;;1.10;;
61252;SDS011;47127;47.516;8.596;2023-12-20T13:43:57;2.63;;;1.05;;
61252;SDS011;47127;47.516;8.596;2023-12-20T13:46:22;2.38;;;1.08;;
61252;SDS011;47127;47.516;8.596;2023-12-20T13:48:49;3.25;;;0.90;;
61252;SDS011;47127;47.516;8.596;2023-12-20T13:51:15;3.58;;;1.15;;
61252;SDS011;47127;47.516;8.596;2023-12-20T13:53:40;6.45;;;1.13;;
61252;SDS011;47127;47.516;8.596;2023-12-20T13:56:06;2.95;;;1.05;;
61252;SDS011;47127;47.516;8.596;2023-12-20T13:58:32;7.57;;;1.98;;
61252;SDS011;47127;47.516;8.596;2023-12-20T14:00:57;2.15;;;1.08;;
61252;SDS011;47127;47.516;8.596;2023-12-20T14:03:23;3.00;;;1.05;;
61252;SDS011;47127;47.516;8.596;2023-12-20T14:05:49;1.85;;;0.82;;
61252;SDS011;47127;47.516;8.596;2023-12-20T14:08:15;2.72;;;1.10;;
61252;SDS011;47127;47.516;8.596;2023-12-20T14:10:40;4.10;;;1.48;;
61252;SDS011;47127;47.516;8.596;2023-12-20T14:13:06;7.35;;;4.70;;
61252;SDS011;47127;47.516;8.596;2023-12-20T14:15:33;21.80;;;10.52;;
61252;SDS011;47127;47.516;8.596;2023-12-20T14:18:04;3.25;;;1.48;;
61252;SDS011;47127;47.516;8.596;2023-12-20T14:20:31;4.70;;;1.30;;
61252;SDS011;47127;47.516;8.596;2023-12-20T14:22:59;7.53;;;1.77;;
61252;SDS011;47127;47.516;8.596;2023-12-20T14:25:26;3.90;;;1.20;;
61252;SDS011;47127;47.516;8.596;2023-12-20T14:27:51;3.53;;;1.20;;
61252;SDS011;47127;47.516;8.596;2023-12-20T14:30:18;5.63;;;1.35;;
61252;SDS011;47127;47.516;8.596;2023-12-20T14:32:44;4.85;;;0.90;;
61252;SDS011;47127;47.516;8.596;2023-12-20T14:35:11;3.85;;;1.02;;
61252;SDS011;47127;47.516;8.596;2023-12-20T14:37:37;2.78;;;0.98;;
61252;SDS011;47127;47.516;8.596;2023-12-20T14:40:06;7.30;;;0.90;;